createdAt,value
2018-10-19T00:01:42.502Z,78.39
2018-10-19T00:04:19.869Z,78.22
2018-10-19T00:06:55.032Z,78.20
2018-10-19T00:09:36.674Z,78.24
2018-10-19T00:12:12.993Z,78.02
2018-10-19T00:14:52.279Z,78.48
2018-10-19T00:17:24.940Z,78.41
2018-10-19T00:19:58.063Z,78.37
2018-10-19T00:22:34.378Z,78.53
2018-10-19T00:25:05.644Z,78.67
2018-10-19T00:30:50.159Z,78.67
2018-10-19T00:33:21.575Z,78.56
2018-10-19T00:35:53.011Z,78.68
2018-10-19T00:38:31.757Z,78.81
2018-10-19T00:41:03.127Z,78.67
2018-10-19T00:43:36.613Z,78.78
2018-10-19T00:46:13.797Z,78.75
2018-10-19T00:48:51.125Z,78.95
2018-10-19T00:51:40.165Z,78.72
2018-10-19T00:54:23.418Z,78.65
2018-10-19T00:56:56.694Z,78.83
2018-10-19T00:59:32.311Z,78.75
2018-10-19T01:02:02.987Z,79.05
2018-10-19T01:09:26.959Z,78.46
2018-10-19T01:11:57.398Z,78.67
2018-10-19T01:14:37.126Z,78.53
2018-10-19T01:17:16.682Z,78.54
2018-10-19T01:19:55.713Z,78.79
2018-10-19T01:22:29.911Z,78.83
2018-10-19T01:25:07.323Z,79.21
2018-10-19T01:27:37.555Z,79.20
2018-10-19T01:30:12.715Z,79.10
2018-10-19T01:35:24.285Z,79.38
2018-10-19T01:37:55.674Z,79.40
2018-10-19T01:40:29.754Z,79.44
2018-10-19T01:43:00.501Z,79.25
2018-10-19T01:45:32.599Z,79.39
2018-10-19T01:48:04.095Z,79.48
2018-10-19T01:50:40.841Z,79.39
2018-10-19T01:53:12.884Z,79.55
2018-10-19T01:55:44.161Z,79.53
2018-10-19T01:58:23.969Z,79.33
2018-10-19T02:01:00.877Z,79.53
2018-10-19T02:03:37.827Z,79.42
2018-10-19T02:06:09.943Z,79.59
2018-10-19T02:08:45.917Z,79.40
2018-10-19T02:11:17.024Z,79.41
2018-10-19T02:13:54.532Z,79.44
2018-10-19T02:16:34.569Z,79.52
2018-10-19T02:19:05.989Z,79.19
2018-10-19T02:21:39.084Z,79.29
2018-10-19T02:24:12.479Z,79.22
2018-10-19T02:26:44.190Z,79.05
2018-10-19T02:29:17.532Z,78.85
2018-10-19T02:31:50.500Z,78.96
2018-10-19T02:34:27.420Z,79.09
2018-10-19T02:37:00.934Z,79.01
2018-10-19T02:39:38.426Z,79.05
2018-10-19T02:42:19.214Z,79.26
2018-10-19T02:44:51.073Z,79.20
2018-10-19T02:47:23.215Z,79.41
2018-10-19T02:49:53.743Z,79.49
2018-10-19T02:52:25.120Z,79.11
2018-10-19T02:57:35.368Z,79.25
2018-10-19T03:00:09.406Z,78.95
2018-10-19T03:02:41.630Z,78.92
2018-10-19T03:05:12.021Z,78.76
2018-10-19T03:07:45.102Z,78.96
2018-10-19T03:10:17.432Z,78.79
2018-10-19T03:12:48.037Z,78.88
2018-10-19T03:15:20.159Z,78.74
2018-10-19T03:17:49.783Z,78.90
2018-10-19T03:20:24.867Z,78.86
2018-10-19T03:22:58.563Z,78.63
2018-10-19T03:25:32.362Z,78.82
2018-10-19T03:28:09.206Z,78.75
2018-10-19T03:30:41.141Z,78.65
2018-10-19T03:33:15.545Z,78.97
2018-10-19T03:35:50.285Z,78.66
2018-10-19T03:38:20.904Z,78.67
2018-10-19T03:40:52.153Z,78.63
2018-10-19T03:43:24.295Z,78.62
2018-10-19T03:45:57.424Z,78.71
2018-10-19T03:48:27.881Z,78.53
2018-10-19T03:50:58.069Z,78.54
2018-10-19T03:53:32.265Z,78.46
2018-10-19T03:56:05.369Z,78.39
2018-10-19T03:58:40.872Z,78.36
2018-10-19T04:01:12.566Z,78.32
2018-10-19T04:03:44.344Z,78.28
2018-10-19T04:14:41.013Z,78.45
2018-10-19T04:17:12.649Z,78.55
2018-10-19T04:19:44.718Z,78.70
2018-10-19T04:22:25.210Z,78.95
2018-10-19T04:24:54.465Z,78.98
2018-10-19T04:27:25.703Z,79.08
2018-10-19T04:29:56.059Z,78.82
2018-10-19T04:32:26.176Z,78.84
2018-10-19T04:35:02.136Z,78.79
2018-10-19T04:37:32.747Z,78.62
2018-10-19T04:40:07.958Z,78.90
2018-10-19T04:42:43.100Z,78.61
2018-10-19T04:51:23.080Z,78.94
2018-10-19T04:53:54.592Z,78.72
2018-10-19T04:56:31.869Z,78.80
2018-10-19T04:59:08.824Z,78.99
2018-10-19T05:01:42.873Z,78.54
2018-10-19T05:04:13.193Z,78.66
2018-10-19T05:06:44.235Z,78.75
2018-10-19T05:09:17.468Z,78.74
2018-10-19T05:11:52.365Z,78.79
2018-10-19T05:14:22.523Z,78.77
2018-10-19T05:16:53.455Z,78.74
2018-10-19T05:19:24.102Z,78.69
2018-10-19T05:21:56.001Z,78.60
2018-10-19T05:24:30.307Z,78.80
2018-10-19T05:27:02.966Z,78.76
2018-10-19T05:32:16.442Z,78.88
2018-10-19T05:34:49.932Z,78.82
2018-10-19T05:37:21.936Z,79.17
2018-10-19T05:39:52.322Z,78.80
2018-10-19T05:42:24.182Z,79.04
2018-10-19T05:44:54.141Z,78.84
2018-10-19T05:47:26.010Z,78.85
2018-10-19T05:49:59.931Z,78.86
2018-10-19T05:52:31.067Z,78.80
2018-10-19T05:55:02.248Z,78.69
2018-10-19T05:57:35.097Z,78.67
2018-10-19T06:00:08.103Z,78.88
2018-10-19T06:02:38.627Z,78.78
2018-10-19T06:05:15.487Z,79.03
2018-10-19T06:07:49.792Z,78.80
2018-10-19T06:10:29.050Z,78.73
2018-10-19T06:12:58.485Z,78.87
2018-10-19T06:15:31.161Z,78.76
2018-10-19T06:18:02.522Z,78.83
2018-10-19T06:20:32.425Z,78.77
2018-10-19T06:23:05.048Z,78.83
2018-10-19T06:25:38.040Z,78.73
2018-10-19T06:36:33.127Z,78.90
2018-10-19T06:39:06.628Z,78.99
2018-10-19T06:41:39.738Z,78.67
2018-10-19T06:44:09.524Z,78.89
2018-10-19T06:46:40.476Z,78.67
2018-10-19T06:49:12.246Z,78.87
2018-10-19T06:51:50.056Z,78.80
2018-10-19T06:54:22.265Z,78.75
2018-10-19T06:56:53.274Z,78.75
2018-10-19T06:59:32.316Z,78.71
2018-10-19T07:02:07.648Z,78.67
2018-10-19T07:04:40.549Z,78.50
2018-10-19T07:07:13.423Z,78.67
2018-10-19T07:09:43.785Z,78.62
2018-10-19T07:12:13.729Z,78.68
2018-10-19T07:14:50.532Z,78.57
2018-10-19T07:19:56.697Z,78.80
2018-10-19T07:22:30.543Z,78.67
2018-10-19T07:25:04.050Z,78.84
2018-10-19T07:27:43.287Z,78.66
2018-10-19T07:30:17.470Z,78.72
2018-10-19T07:32:58.806Z,78.74
2018-10-19T07:35:33.596Z,78.94
2018-10-19T07:38:06.702Z,79.10
2018-10-19T07:40:36.523Z,79.10
2018-10-19T07:43:10.246Z,79.10
2018-10-19T07:45:40.568Z,78.85
2018-10-19T07:48:12.746Z,78.76
2018-10-19T07:50:51.436Z,78.88
2018-10-19T07:53:26.312Z,78.61
2018-10-19T07:55:59.279Z,78.58
2018-10-19T07:58:35.429Z,78.53
2018-10-19T08:04:14.703Z,78.44
2018-10-19T08:12:50.423Z,78.73
2018-10-19T08:15:23.225Z,78.45
2018-10-19T08:17:53.680Z,78.43
2018-10-19T08:20:23.880Z,78.28
2018-10-19T08:22:56.482Z,78.20
2018-10-19T08:28:24.445Z,78.49
2018-10-19T08:31:01.168Z,78.38
2018-10-19T08:33:36.216Z,78.38
2018-10-19T08:36:14.200Z,78.12
2018-10-19T08:38:48.607Z,78.20
2018-10-19T08:41:20.009Z,78.05
2018-10-19T08:43:58.191Z,78.34
2018-10-19T08:46:33.716Z,78.18
2018-10-19T08:49:10.572Z,78.20
2018-10-19T08:51:42.444Z,78.15
2018-10-19T08:54:15.237Z,78.21
2018-10-19T08:56:49.657Z,78.05
2018-10-19T08:59:24.158Z,77.90
2018-10-19T09:01:55.118Z,78.07
2018-10-19T09:04:27.352Z,77.94
2018-10-19T09:06:57.824Z,78.11
2018-10-19T09:09:30.213Z,78.14
2018-10-19T09:12:04.039Z,78.05
2018-10-19T09:15:05.451Z,77.85
2018-10-19T09:17:42.260Z,77.60
2018-10-19T09:20:14.513Z,77.59
2018-10-19T09:23:03.446Z,77.79
2018-10-19T09:25:38.538Z,77.89
2018-10-19T09:28:11.556Z,77.81
2018-10-19T09:30:41.440Z,77.68
2018-10-19T09:33:14.990Z,77.80
2018-10-19T09:35:50.985Z,77.78
2018-10-19T09:38:21.764Z,77.89
2018-10-19T09:40:54.357Z,77.71
2018-10-19T09:43:40.740Z,77.88
2018-10-19T09:46:13.830Z,77.74
2018-10-19T09:48:42.909Z,77.94
2018-10-19T09:51:17.485Z,77.82
2018-10-19T09:53:51.587Z,77.91
2018-10-19T09:58:58.734Z,77.78
2018-10-19T10:01:29.977Z,77.76
2018-10-19T10:04:05.445Z,77.88
2018-10-19T10:06:35.707Z,77.65
2018-10-19T10:09:13.041Z,77.60
2018-10-19T10:11:43.209Z,77.61
2018-10-19T10:14:13.176Z,77.47
2018-10-19T10:16:42.982Z,77.33
2018-10-19T10:19:13.958Z,77.45
2018-10-19T10:21:46.012Z,77.33
2018-10-19T10:24:16.010Z,77.40
2018-10-19T10:26:47.345Z,77.26
2018-10-19T10:29:16.987Z,77.23
2018-10-19T10:31:46.239Z,76.85
2018-10-19T10:34:18.463Z,76.88
2018-10-19T10:39:44.880Z,76.68
2018-10-19T10:42:19.808Z,76.99
2018-10-19T10:44:50.923Z,76.58
2018-10-19T10:47:23.609Z,76.78
2018-10-19T10:49:55.801Z,77.00
2018-10-19T10:52:26.431Z,77.06
2018-10-19T10:54:55.958Z,76.70
2018-10-19T10:57:26.503Z,76.66
2018-10-19T10:59:58.400Z,76.84
2018-10-19T11:02:32.242Z,76.63
2018-10-19T11:05:03.931Z,76.63
2018-10-19T11:07:38.198Z,76.66
2018-10-19T11:10:10.359Z,76.47
2018-10-19T11:12:41.380Z,76.34
2018-10-19T11:15:14.019Z,76.17
2018-10-19T11:17:45.258Z,76.41
2018-10-19T11:20:14.978Z,76.11
2018-10-19T11:22:45.632Z,76.24
2018-10-19T11:25:17.066Z,75.98
2018-10-19T11:27:49.675Z,75.85
2018-10-19T11:30:19.557Z,75.75
2018-10-19T11:35:24.267Z,75.22
2018-10-19T11:37:57.291Z,75.20
2018-10-19T11:40:30.267Z,75.46
2018-10-19T11:43:05.635Z,75.23
2018-10-19T11:45:44.360Z,75.09
2018-10-19T11:48:14.616Z,74.79
2018-10-19T11:50:51.124Z,74.75
2018-10-19T11:53:20.942Z,74.98
2018-10-19T11:55:55.645Z,74.89
2018-10-19T11:58:27.377Z,74.76
2018-10-19T12:01:01.204Z,74.70
2018-10-19T12:07:00.798Z,74.57
2018-10-19T12:09:37.329Z,74.58
2018-10-19T12:12:06.942Z,74.14
2018-10-19T12:14:40.231Z,73.79
2018-10-19T12:17:11.778Z,73.60
2018-10-19T12:19:41.978Z,73.68
2018-10-19T12:22:12.284Z,73.94
2018-10-19T12:24:43.603Z,74.13
2018-10-19T12:27:14.895Z,73.75
2018-10-19T12:29:45.204Z,73.98
2018-10-19T12:32:20.024Z,74.13
2018-10-19T12:34:54.178Z,74.29
2018-10-19T12:37:29.031Z,74.53
2018-10-19T12:40:08.341Z,74.71
2018-10-19T12:48:24.428Z,74.22
2018-10-19T12:50:57.166Z,74.29
2018-10-19T12:53:30.967Z,74.10
2018-10-19T13:31:17.540Z,73.37
2018-10-19T13:33:47.177Z,73.28
2018-10-19T13:36:17.273Z,73.60
2018-10-19T13:38:52.094Z,73.76
2018-10-19T13:41:21.795Z,73.37
2018-10-19T13:43:57.015Z,73.73
2018-10-19T13:49:25.260Z,73.87
2018-10-19T13:51:59.393Z,73.84
2018-10-19T13:54:29.658Z,73.86
2018-10-19T13:57:00.735Z,73.81
2018-10-19T13:59:32.032Z,73.73
2018-10-19T14:02:02.010Z,73.84
2018-10-19T14:04:32.381Z,74.05
2018-10-19T14:07:07.635Z,73.67
2018-10-19T14:09:39.645Z,73.53
2018-10-19T14:12:18.149Z,73.88
2018-10-19T14:14:58.462Z,73.77
2018-10-19T14:17:28.219Z,73.49
2018-10-19T14:20:00.035Z,73.30
2018-10-19T14:22:31.943Z,73.35
2018-10-19T14:25:06.598Z,73.24
2018-10-19T14:27:44.199Z,73.77
2018-10-19T14:30:19.233Z,73.42
2018-10-19T14:32:50.076Z,73.40
2018-10-19T14:35:23.483Z,73.21
2018-10-19T14:37:59.740Z,72.97
2018-10-19T14:40:36.780Z,73.40
2018-10-19T14:43:11.249Z,72.78
2018-10-19T14:45:41.823Z,72.64
2018-10-19T14:48:20.248Z,72.33
2018-10-19T14:50:59.706Z,72.23
2018-10-19T14:53:35.052Z,72.05
2018-10-19T14:56:06.590Z,72.09
2018-10-19T14:58:38.174Z,71.98
2018-10-19T15:01:18.746Z,72.29
2018-10-19T15:03:49.930Z,72.32
2018-10-19T15:06:21.869Z,72.13
2018-10-19T15:08:52.316Z,72.18
2018-10-19T15:11:23.665Z,71.99
2018-10-19T15:13:59.053Z,72.11
2018-10-19T15:16:29.844Z,71.86
2018-10-19T15:19:02.955Z,71.86
2018-10-19T15:21:37.445Z,71.85
2018-10-19T15:24:20.560Z,71.92
2018-10-19T15:26:50.951Z,72.08
2018-10-19T15:29:21.219Z,72.12
2018-10-19T15:31:55.035Z,72.09
2018-10-19T15:34:45.939Z,72.30
2018-10-19T15:37:18.373Z,72.26
2018-10-19T15:40:04.109Z,72.46
2018-10-19T15:42:35.587Z,72.79
2018-10-19T15:45:10.374Z,72.51
2018-10-19T15:47:44.994Z,72.39
2018-10-19T15:50:27.140Z,72.28
2018-10-19T15:53:02.816Z,72.61
2018-10-19T15:55:32.908Z,72.75
2018-10-19T15:58:07.914Z,72.53
2018-10-19T16:00:46.903Z,72.84
2018-10-19T16:03:19.115Z,72.95
2018-10-19T16:05:49.939Z,72.70
2018-10-19T16:08:22.611Z,73.22
2018-10-19T16:11:03.832Z,73.40
2018-10-19T16:13:40.277Z,73.35
2018-10-19T16:16:13.752Z,73.32
2018-10-19T16:18:50.058Z,73.51
2018-10-19T16:21:20.866Z,73.72
2018-10-19T16:23:55.100Z,73.86
2018-10-19T16:26:33.432Z,73.98
2018-10-19T16:29:12.180Z,74.18
2018-10-19T16:31:44.286Z,74.20
2018-10-19T16:34:24.203Z,74.52
2018-10-19T16:36:55.667Z,75.10
2018-10-19T16:39:33.701Z,74.80
2018-10-19T16:42:15.315Z,75.01
2018-10-19T16:44:50.092Z,75.50
2018-10-19T16:47:20.408Z,75.21
2018-10-19T16:52:31.964Z,75.54
2018-10-19T16:55:07.881Z,75.77
2018-10-19T16:57:43.961Z,75.87
2018-10-19T17:00:16.889Z,76.10
2018-10-19T17:02:48.696Z,76.38
2018-10-19T17:05:22.337Z,76.26
2018-10-19T17:07:54.448Z,76.72
2018-10-19T17:10:25.025Z,76.95
2018-10-19T17:13:01.683Z,76.75
2018-10-19T17:15:34.063Z,76.81
2018-10-19T17:18:05.008Z,77.19
2018-10-19T17:20:50.485Z,77.08
2018-10-19T17:23:21.203Z,77.15
2018-10-19T17:25:55.876Z,77.27
2018-10-19T17:28:31.718Z,77.53
2018-10-19T17:31:03.772Z,77.54
2018-10-19T17:33:38.266Z,77.25
2018-10-19T17:36:07.290Z,77.47
2018-10-19T17:38:41.706Z,77.85
2018-10-19T17:41:17.346Z,77.93
2018-10-19T17:43:47.588Z,77.85
2018-10-19T17:46:23.384Z,78.18
2018-10-19T17:48:53.277Z,78.03
2018-10-19T17:51:26.168Z,78.50
2018-10-19T17:54:11.821Z,78.45
2018-10-19T17:56:46.057Z,78.49
2018-10-19T17:59:29.340Z,78.75
2018-10-19T18:02:01.474Z,78.89
2018-10-19T18:04:32.867Z,78.82
2018-10-19T18:07:11.604Z,79.12
2018-10-19T18:09:41.937Z,79.15
2018-10-19T18:12:18.982Z,78.91
2018-10-19T18:14:55.426Z,79.36
2018-10-19T18:17:27.155Z,79.16
2018-10-19T18:20:01.251Z,79.34
2018-10-19T18:22:37.905Z,79.36
2018-10-19T18:25:14.201Z,79.40
2018-10-19T18:27:45.849Z,79.59
2018-10-19T18:30:16.909Z,79.74
2018-10-19T18:32:48.857Z,79.87
2018-10-19T18:35:19.995Z,79.67
2018-10-19T18:37:50.144Z,79.83
2018-10-19T18:40:23.482Z,79.98
2018-10-19T18:42:56.566Z,79.88
2018-10-19T18:45:28.874Z,80.06
2018-10-19T18:48:05.866Z,80.16
2018-10-19T18:50:52.628Z,80.12
2018-10-19T18:53:21.744Z,80.27
2018-10-19T18:55:52.057Z,80.27
2018-10-19T18:58:26.805Z,80.16
2018-10-19T19:00:58.041Z,80.33
2018-10-19T19:03:29.282Z,80.31
2018-10-19T19:05:59.352Z,80.28
2018-10-19T19:08:31.436Z,80.29
2018-10-19T19:11:03.871Z,80.26
2018-10-19T19:13:35.365Z,80.39
2018-10-19T19:16:10.531Z,80.56
2018-10-19T19:18:41.510Z,80.41
2018-10-19T19:21:11.406Z,80.46
2018-10-19T19:23:48.052Z,80.27
2018-10-19T19:26:27.167Z,80.31
2018-10-19T19:28:59.703Z,80.26
2018-10-19T19:31:34.666Z,80.23
2018-10-19T19:34:12.213Z,80.41
2018-10-19T19:36:42.789Z,80.34
2018-10-19T19:39:14.418Z,80.21
2018-10-19T19:41:52.482Z,80.17
2018-10-19T19:44:27.852Z,80.15
2018-10-19T19:46:58.863Z,80.59
2018-10-19T19:49:37.277Z,80.41
2018-10-19T19:52:07.602Z,80.55
2018-10-19T19:54:40.778Z,80.69
2018-10-19T19:57:10.932Z,80.50
2018-10-19T19:59:50.864Z,80.67
2018-10-19T20:02:22.126Z,80.62
2018-10-19T20:04:54.337Z,80.89
2018-10-19T20:07:24.879Z,80.84
2018-10-19T20:09:56.085Z,80.67
2018-10-19T20:12:27.181Z,80.65
2018-10-19T20:14:58.887Z,80.58
2018-10-19T20:17:31.612Z,80.64
2018-10-19T20:20:02.874Z,80.94
2018-10-19T20:22:42.705Z,81.04
2018-10-19T20:25:17.982Z,81.10
2018-10-19T20:27:49.611Z,81.27
2018-10-19T20:30:20.796Z,81.16
2018-10-19T20:32:54.773Z,81.48
2018-10-19T20:35:27.421Z,81.49
2018-10-19T20:38:00.941Z,81.54
2018-10-19T20:40:31.045Z,81.79
2018-10-19T20:43:02.828Z,81.63
2018-10-19T20:45:32.969Z,81.72
2018-10-19T20:48:02.877Z,81.50
2018-10-19T20:50:35.628Z,81.51
2018-10-19T20:53:08.708Z,81.40
2018-10-19T20:55:49.421Z,81.33
2018-10-19T20:58:20.371Z,81.27
2018-10-19T21:00:53.305Z,81.03
2018-10-19T21:03:26.505Z,81.03
2018-10-19T21:05:57.650Z,81.15
2018-10-19T21:08:28.581Z,81.25
2018-10-19T21:11:05.321Z,81.18
2018-10-19T21:13:36.747Z,81.39
2018-10-19T21:16:09.937Z,81.38
2018-10-19T21:18:43.519Z,81.52
2018-10-19T21:21:15.632Z,81.33
2018-10-19T21:23:45.875Z,81.28
2018-10-19T21:26:16.367Z,81.39
2018-10-19T21:29:05.142Z,81.30
2018-10-19T21:31:37.128Z,81.42
2018-10-19T21:36:54.394Z,81.04
2018-10-19T21:39:26.735Z,80.92
2018-10-19T21:41:58.056Z,81.00
2018-10-19T21:44:30.705Z,80.88
2018-10-19T21:47:03.465Z,81.19
2018-10-19T21:49:34.628Z,81.07
2018-10-19T21:52:04.259Z,81.26
2018-10-19T21:54:38.109Z,81.21
2018-10-19T21:57:07.529Z,81.23
2018-10-19T21:59:40.311Z,81.29
2018-10-19T22:02:18.843Z,81.34
2018-10-19T22:04:49.790Z,81.54
2018-10-19T22:07:23.429Z,81.58
2018-10-19T22:09:57.666Z,81.65
2018-10-19T22:12:28.073Z,81.52
2018-10-19T22:14:58.874Z,81.67
2018-10-19T22:17:28.436Z,81.45
2018-10-19T22:20:01.822Z,81.39
2018-10-19T22:22:53.109Z,81.54
2018-10-19T22:25:43.795Z,81.52
2018-10-19T22:28:39.646Z,81.44
2018-10-19T22:31:10.638Z,81.45
2018-10-19T22:33:56.441Z,81.61
2018-10-19T22:36:47.207Z,81.53
2018-10-19T22:39:45.356Z,81.48
2018-10-19T22:42:37.866Z,81.64
2018-10-19T22:45:37.916Z,81.79
2018-10-19T22:48:34.131Z,81.82
2018-10-19T22:51:24.374Z,81.90
2018-10-19T22:54:10.841Z,81.69
2018-10-19T22:56:41.221Z,81.90
2018-10-19T22:59:34.328Z,81.92
2018-10-19T23:02:05.687Z,81.79
2018-10-19T23:04:56.803Z,81.75
2018-10-19T23:07:51.942Z,81.74
2018-10-19T23:10:24.508Z,81.97
2018-10-19T23:12:56.968Z,81.95
2018-10-19T23:15:31.316Z,81.75
2018-10-19T23:18:04.408Z,81.79
2018-10-19T23:20:38.551Z,81.65
2018-10-19T23:23:10.154Z,81.55
2018-10-19T23:25:40.485Z,81.71
2018-10-19T23:28:10.325Z,81.52
2018-10-19T23:30:45.803Z,81.47
2018-10-19T23:33:16.763Z,81.44
2018-10-19T23:35:46.577Z,81.34
2018-10-19T23:38:17.740Z,81.42
2018-10-19T23:40:49.777Z,81.46
2018-10-19T23:43:24.888Z,81.42
2018-10-19T23:45:54.948Z,81.33
2018-10-19T23:48:29.322Z,81.32
2018-10-19T23:51:06.954Z,81.46
2018-10-19T23:53:36.955Z,81.54
2018-10-19T23:56:12.154Z,81.53
2018-10-19T23:58:52.076Z,81.50
